Time;durP1;ratioP1;P1;durP2;ratioP2;P2;SDS_P1;SDS_P2;PMS_P1;PMS_P2;Temp;Humidity;BMP_temperature;BMP_pressure;BME280_temperature;BME280_humidity;BME280_pressure;Samples;Min_cycle;Max_cycle;Signal;HPM_P1;HPM_P2
2023/07/21 00:02:07;;;;;;;23.13;13.15;;;;;;;;;;5036096;28;20053;-66
2023/07/21 00:04:35;;;;;;;10.65;4.95;;;;;;;;;;5028625;28;20049;-67
2023/07/21 00:07:02;;;;;;;3.87;1.63;;;;;;;;;;5020454;28;20049;-67
2023/07/21 00:09:29;;;;;;;4.75;1.08;;;;;;;;;;5020010;28;20300;-66
2023/07/21 00:11:57;;;;;;;2.67;1.20;;;;;;;;;;5025506;28;20049;-67
2023/07/21 00:14:24;;;;;;;2.10;1.20;;;;;;;;;;5020791;28;20049;-68
2023/07/21 00:16:53;;;;;;;2.25;1.10;;;;;;;;;;5018710;28;20046;-67
2023/07/21 00:19:20;;;;;;;4.72;1.10;;;;;;;;;;5025254;28;20061;-67
2023/07/21 00:21:48;;;;;;;6.85;2.13;;;;;;;;;;5026581;28;20057;-67
2023/07/21 00:24:15;;;;;;;11.77;3.85;;;;;;;;;;5023682;28;20054;-67
2023/07/21 00:26:41;;;;;;;7.40;3.22;;;;;;;;;;5014824;28;20057;-68
2023/07/21 00:29:10;;;;;;;2.70;1.48;;;;;;;;;;5024465;28;20053;-65
2023/07/21 00:31:38;;;;;;;2.13;1.23;;;;;;;;;;5024874;28;20049;-68
2023/07/21 00:34:08;;;;;;;3.08;1.25;;;;;;;;;;5022916;28;20049;-68
2023/07/21 00:36:35;;;;;;;3.65;1.30;;;;;;;;;;5013870;28;20152;-66
2023/07/21 00:39:03;;;;;;;2.50;1.30;;;;;;;;;;5025679;28;20054;-67
2023/07/21 00:41:30;;;;;;;1.75;0.93;;;;;;;;;;5025359;28;20061;-67
2023/07/21 00:43:57;;;;;;;3.63;1.30;;;;;;;;;;5023651;28;20061;-66
2023/07/21 00:46:25;;;;;;;2.33;1.33;;;;;;;;;;5017915;28;20045;-68
2023/07/21 00:48:52;;;;;;;2.10;1.10;;;;;;;;;;5035781;28;20061;-66
2023/07/21 00:51:20;;;;;;;5.07;1.40;;;;;;;;;;5031563;28;20053;-67
2023/07/21 00:53:48;;;;;;;3.88;1.10;;;;;;;;;;5033821;28;20053;-66
2023/07/21 00:56:16;;;;;;;2.50;1.27;;;;;;;;;;5036662;28;20067;-66
2023/07/21 00:58:43;;;;;;;4.32;1.30;;;;;;;;;;5029690;28;20065;-66
2023/07/21 01:01:10;;;;;;;1.45;1.10;;;;;;;;;;5036144;28;20049;-66
2023/07/21 01:03:39;;;;;;;2.00;1.23;;;;;;;;;;5030819;28;20061;-67
2023/07/21 01:06:08;;;;;;;4.50;1.38;;;;;;;;;;5028180;28;20065;-66
2023/07/21 01:08:36;;;;;;;2.95;1.30;;;;;;;;;;5029939;28;20140;-66
2023/07/21 01:11:03;;;;;;;2.20;1.05;;;;;;;;;;5033513;28;20123;-66
2023/07/21 01:13:31;;;;;;;2.05;1.05;;;;;;;;;;5037068;28;20067;-66
2023/07/21 01:16:01;;;;;;;13.45;5.05;;;;;;;;;;5042227;28;20053;-66
2023/07/21 01:18:28;;;;;;;23.52;10.57;;;;;;;;;;5038143;28;20179;-67
2023/07/21 01:20:57;;;;;;;16.35;7.32;;;;;;;;;;5043584;28;20128;-65
2023/07/21 01:23:31;;;;;;;6.22;3.28;;;;;;;;;;5038004;28;20045;-68
2023/07/21 01:26:01;;;;;;;3.53;1.70;;;;;;;;;;5049512;28;20114;-68
2023/07/21 01:28:29;;;;;;;3.38;1.42;;;;;;;;;;5025161;28;20057;-69
2023/07/21 01:30:57;;;;;;;1.27;1.05;;;;;;;;;;5028885;28;20040;-68
2023/07/21 01:33:25;;;;;;;2.53;1.15;;;;;;;;;;5043307;28;20111;-68
2023/07/21 01:35:52;;;;;;;3.30;1.20;;;;;;;;;;5037999;28;20067;-67
2023/07/21 01:38:20;;;;;;;3.00;1.08;;;;;;;;;;5039565;28;20044;-68
2023/07/21 01:40:47;;;;;;;;;;;;;;;;;;5038837;28;21794;-68
2023/07/21 01:43:16;;;;;;;2.65;0.90;;;;;;;;;;5035559;28;19954;-68
2023/07/21 01:45:43;;;;;;;1.80;1.10;;;;;;;;;;5019769;28;20065;-68
2023/07/21 01:48:10;;;;;;;2.42;1.08;;;;;;;;;;5003981;28;20049;-67
2023/07/21 01:50:39;;;;;;;3.13;1.42;;;;;;;;;;5000397;28;20079;-67
2023/07/21 01:53:12;;;;;;;2.22;1.20;;;;;;;;;;5014415;28;20176;-66
2023/07/21 01:55:44;;;;;;;2.53;1.30;;;;;;;;;;5004126;28;20049;-65
2023/07/21 01:58:12;;;;;;;3.28;1.50;;;;;;;;;;5035069;28;20037;-65
2023/07/21 02:00:42;;;;;;;3.60;1.30;;;;;;;;;;5034465;28;20057;-66
2023/07/21 02:03:11;;;;;;;2.50;1.30;;;;;;;;;;5042544;28;20049;-67
2023/07/21 02:05:38;;;;;;;2.05;1.13;;;;;;;;;;5002906;28;20076;-66
2023/07/21 02:08:05;;;;;;;3.38;1.50;;;;;;;;;;5035999;28;20045;-66
2023/07/21 02:10:32;;;;;;;2.47;1.30;;;;;;;;;;5016260;28;20060;-67
2023/07/21 02:12:58;;;;;;;3.58;1.50;;;;;;;;;;5019410;28;20041;-67
2023/07/21 02:15:25;;;;;;;5.18;1.60;;;;;;;;;;5015252;28;20076;-66
2023/07/21 02:17:53;;;;;;;4.13;1.30;;;;;;;;;;5022292;28;20053;-66
2023/07/21 02:20:20;;;;;;;3.42;1.52;;;;;;;;;;5021829;28;20061;-66
2023/07/21 02:22:47;;;;;;;2.65;1.33;;;;;;;;;;5017329;28;20082;-66
2023/07/21 02:25:15;;;;;;;2.83;1.27;;;;;;;;;;5021850;28;20049;-66
2023/07/21 02:27:42;;;;;;;3.47;1.50;;;;;;;;;;5023838;28;20129;-67
2023/07/21 02:30:11;;;;;;;3.90;1.45;;;;;;;;;;5022891;28;20084;-66
2023/07/21 02:32:38;;;;;;;1.35;0.98;;;;;;;;;;5016241;28;20079;-67
2023/07/21 02:35:08;;;;;;;1.70;1.20;;;;;;;;;;5032121;28;20053;-66
2023/07/21 02:37:35;;;;;;;4.03;1.40;;;;;;;;;;5042631;28;20045;-67
2023/07/21 02:40:04;;;;;;;2.83;1.38;;;;;;;;;;5023193;28;20077;-66
2023/07/21 02:42:32;;;;;;;1.75;1.27;;;;;;;;;;5022030;28;20104;-66
2023/07/21 02:44:58;;;;;;;1.70;1.13;;;;;;;;;;5015444;28;20058;-66
2023/07/21 02:47:26;;;;;;;3.20;1.50;;;;;;;;;;5033125;28;20064;-66
2023/07/21 02:49:53;;;;;;;2.80;1.42;;;;;;;;;;5025195;28;20049;-66
2023/07/21 02:52:22;;;;;;;2.70;1.38;;;;;;;;;;5022946;28;20057;-66
2023/07/21 02:54:49;;;;;;;2.92;1.45;;;;;;;;;;5009982;28;20046;-66
2023/07/21 02:57:15;;;;;;;1.95;1.17;;;;;;;;;;5023421;28;20049;-67
2023/07/21 02:59:42;;;;;;;2.85;1.20;;;;;;;;;;5023905;28;20049;-67
2023/07/21 03:02:10;;;;;;;1.58;1.00;;;;;;;;;;5028277;28;20109;-66
2023/07/21 03:04:42;;;;;;;4.03;1.40;;;;;;;;;;5028754;28;20056;-67
2023/07/21 03:07:11;;;;;;;2.97;1.45;;;;;;;;;;5042871;28;20088;-67
2023/07/21 03:09:39;;;;;;;2.50;1.27;;;;;;;;;;5042004;28;20080;-66
2023/07/21 03:12:07;;;;;;;;;;;;;;;;;;5034714;28;20103;-66
2023/07/21 03:14:33;;;;;;;1.83;1.20;;;;;;;;;;5015951;28;19929;-69
2023/07/21 03:17:00;;;;;;;2.55;1.30;;;;;;;;;;5040638;28;20057;-66
2023/07/21 03:19:29;;;;;;;2.55;1.30;;;;;;;;;;5022194;28;20080;-67
2023/07/21 03:21:56;;;;;;;2.38;1.20;;;;;;;;;;5033296;28;20060;-67
2023/07/21 03:24:25;;;;;;;2.03;1.25;;;;;;;;;;5035924;28;20124;-67
2023/07/21 03:26:53;;;;;;;2.42;1.08;;;;;;;;;;5039040;28;20052;-66
2023/07/21 03:29:22;;;;;;;4.75;1.20;;;;;;;;;;5042340;28;20059;-67
2023/07/21 03:31:49;;;;;;;3.97;1.40;;;;;;;;;;5042785;28;20045;-66
2023/07/21 03:34:16;;;;;;;3.88;1.77;;;;;;;;;;5037285;28;20113;-66
2023/07/21 03:36:43;;;;;;;4.57;1.73;;;;;;;;;;5036274;28;20085;-67
2023/07/21 03:39:10;;;;;;;2.78;1.55;;;;;;;;;;5039408;28;20160;-66
2023/07/21 03:41:36;;;;;;;3.42;1.63;;;;;;;;;;5042420;28;20058;-66
2023/07/21 03:44:09;;;;;;;6.20;1.60;;;;;;;;;;5031907;28;20180;-67
2023/07/21 03:46:37;;;;;;;2.60;1.58;;;;;;;;;;5015888;28;20089;-69
2023/07/21 03:49:04;;;;;;;4.67;1.60;;;;;;;;;;5025144;28;20065;-66
2023/07/21 03:51:31;;;;;;;3.22;1.50;;;;;;;;;;5026090;28;20053;-65
2023/07/21 03:53:58;;;;;;;2.88;1.80;;;;;;;;;;5005278;28;20246;-66
2023/07/21 03:56:25;;;;;;;3.53;2.00;;;;;;;;;;5021930;28;20080;-66
2023/07/21 03:58:53;;;;;;;4.85;2.08;;;;;;;;;;5019032;28;20049;-68
2023/07/21 04:01:21;;;;;;;5.13;2.10;;;;;;;;;;5024433;28;20045;-66
2023/07/21 04:03:48;;;;;;;6.32;2.42;;;;;;;;;;5016165;28;20061;-67
2023/07/21 04:06:17;;;;;;;5.55;2.95;;;;;;;;;;5044500;28;20041;-67
2023/07/21 04:08:44;;;;;;;5.10;2.97;;;;;;;;;;5034335;28;20223;-67
2023/07/21 04:11:11;;;;;;;7.30;3.13;;;;;;;;;;5029778;28;20094;-68
2023/07/21 04:13:38;;;;;;;6.03;3.30;;;;;;;;;;5041695;28;20172;-69
2023/07/21 04:16:05;;;;;;;6.55;3.42;;;;;;;;;;5023729;28;20057;-67
2023/07/21 04:18:33;;;;;;;12.73;3.42;;;;;;;;;;5018037;28;20064;-68
2023/07/21 04:21:00;;;;;;;7.47;3.83;;;;;;;;;;5028379;28;20085;-67
2023/07/21 04:23:27;;;;;;;5.80;3.47;;;;;;;;;;5025113;28;20115;-68
2023/07/21 04:25:54;;;;;;;6.43;3.38;;;;;;;;;;5022800;28;20061;-68
2023/07/21 04:28:21;;;;;;;7.90;3.70;;;;;;;;;;5026210;28;20111;-66
2023/07/21 04:30:48;;;;;;;7.03;3.50;;;;;;;;;;5018020;28;20050;-66
2023/07/21 04:33:15;;;;;;;7.35;3.88;;;;;;;;;;5025789;28;20045;-66
2023/07/21 04:35:48;;;;;;;8.38;3.83;;;;;;;;;;5009416;28;20140;-65
2023/07/21 04:38:15;;;;;;;10.57;4.18;;;;;;;;;;5023843;28;20107;-65
2023/07/21 04:40:44;;;;;;;38.80;19.15;;;;;;;;;;5015310;28;20060;-66
2023/07/21 04:43:11;;;;;;;;;;;;;;;;;;5025463;28;20045;-66
2023/07/21 04:45:42;;;;;;;9.27;4.60;;;;;;;;;;5023108;28;19929;-66
2023/07/21 04:48:09;;;;;;;8.20;3.85;;;;;;;;;;5036868;28;20056;-66
2023/07/21 04:50:36;;;;;;;6.70;4.13;;;;;;;;;;5031919;28;20049;-66
2023/07/21 04:53:05;;;;;;;10.20;4.43;;;;;;;;;;5030531;28;20072;-66
2023/07/21 04:55:31;;;;;;;8.38;3.80;;;;;;;;;;5032564;28;20048;-67
2023/07/21 04:57:58;;;;;;;9.95;4.07;;;;;;;;;;5042645;28;20056;-67
2023/07/21 05:00:27;;;;;;;6.50;3.90;;;;;;;;;;5031534;28;20206;-66
2023/07/21 05:02:54;;;;;;;8.30;4.10;;;;;;;;;;5023387;28;20049;-67
2023/07/21 05:05:21;;;;;;;13.50;3.88;;;;;;;;;;5036677;28;20053;-67
2023/07/21 05:07:49;;;;;;;7.05;4.13;;;;;;;;;;5042173;28;20060;-66
2023/07/21 05:10:17;;;;;;;9.65;4.25;;;;;;;;;;5038101;28;20037;-66
2023/07/21 05:12:45;;;;;;;6.95;3.97;;;;;;;;;;5025876;28;20045;-66
2023/07/21 05:15:13;;;;;;;6.18;3.72;;;;;;;;;;5046248;28;20063;-67
2023/07/21 05:17:40;;;;;;;9.52;4.80;;;;;;;;;;5041374;28;20060;-66
2023/07/21 05:20:11;;;;;;;32.72;16.52;;;;;;;;;;5032041;28;20106;-66
2023/07/21 05:22:37;;;;;;;16.75;8.23;;;;;;;;;;5019749;28;20049;-66
2023/07/21 05:25:06;;;;;;;11.48;4.30;;;;;;;;;;5016347;28;20052;-67
2023/07/21 05:27:34;;;;;;;9.10;4.20;;;;;;;;;;5018032;28;20088;-68
2023/07/21 05:30:01;;;;;;;7.40;4.07;;;;;;;;;;5020403;28;20061;-68
2023/07/21 05:32:28;;;;;;;6.95;4.00;;;;;;;;;;5018353;28;20052;-66
2023/07/21 05:34:55;;;;;;;7.43;3.95;;;;;;;;;;5018520;28;20053;-68
2023/07/21 05:37:22;;;;;;;8.68;4.57;;;;;;;;;;5042727;28;20057;-67
2023/07/21 05:39:48;;;;;;;9.30;4.63;;;;;;;;;;5039847;28;20068;-66
2023/07/21 05:42:15;;;;;;;7.15;3.90;;;;;;;;;;5041089;28;20061;-66
2023/07/21 05:44:45;;;;;;;7.25;4.32;;;;;;;;;;5030890;28;20054;-66
2023/07/21 05:47:12;;;;;;;8.18;4.13;;;;;;;;;;5036556;28;20184;-66
2023/07/21 05:49:38;;;;;;;17.55;8.70;;;;;;;;;;5038009;28;20044;-67
2023/07/21 05:52:06;;;;;;;17.35;8.85;;;;;;;;;;5043546;28;20079;-68
2023/07/21 05:54:33;;;;;;;17.38;8.77;;;;;;;;;;5027904;28;20119;-68
2023/07/21 05:57:00;;;;;;;14.45;7.38;;;;;;;;;;5025590;28;20064;-67
2023/07/21 05:59:27;;;;;;;14.07;7.47;;;;;;;;;;5025021;28;20113;-67
2023/07/21 06:01:58;;;;;;;9.88;4.63;;;;;;;;;;5041393;28;20056;-67
2023/07/21 06:04:25;;;;;;;8.25;3.50;;;;;;;;;;5024498;28;20067;-67
2023/07/21 06:06:53;;;;;;;14.63;6.80;;;;;;;;;;5035798;28;20194;-66
2023/07/21 06:09:20;;;;;;;8.45;5.00;;;;;;;;;;5039412;28;20053;-66
2023/07/21 06:11:48;;;;;;;11.82;4.80;;;;;;;;;;5032506;28;20068;-66
2023/07/21 06:14:15;;;;;;;8.10;4.18;;;;;;;;;;5030055;28;20061;-67
2023/07/21 06:16:42;;;;;;;6.32;3.15;;;;;;;;;;5012216;28;20053;-66
2023/07/21 06:19:10;;;;;;;7.90;3.40;;;;;;;;;;5019941;28;20124;-66
2023/07/21 06:21:37;;;;;;;14.73;3.85;;;;;;;;;;5018147;28;20072;-66
2023/07/21 06:24:05;;;;;;;8.30;3.55;;;;;;;;;;5006980;28;20065;-67
2023/07/21 06:26:32;;;;;;;8.00;3.70;;;;;;;;;;5033368;28;20055;-69
2023/07/21 06:28:59;;;;;;;9.48;3.13;;;;;;;;;;5037196;28;20135;-67
2023/07/21 06:31:26;;;;;;;5.93;2.80;;;;;;;;;;5034312;28;20111;-67
2023/07/21 06:33:52;;;;;;;9.73;2.70;;;;;;;;;;5015208;28;20062;-67
2023/07/21 06:36:22;;;;;;;5.50;2.70;;;;;;;;;;5003411;28;20101;-67
2023/07/21 06:38:49;;;;;;;10.70;3.00;;;;;;;;;;5012534;28;20065;-67
2023/07/21 06:41:16;;;;;;;5.13;2.65;;;;;;;;;;4998364;28;20065;-67
2023/07/21 06:43:43;;;;;;;8.38;3.08;;;;;;;;;;5014165;28;20084;-66
2023/07/21 06:46:10;;;;;;;5.80;2.72;;;;;;;;;;5029484;28;20049;-66
2023/07/21 06:48:36;;;;;;;7.35;3.13;;;;;;;;;;5029885;28;20080;-68
2023/07/21 06:51:03;;;;;;;8.52;2.40;;;;;;;;;;5038116;28;20163;-66
2023/07/21 06:57:01;;;;;;;6.32;2.83;;;;;;;;;;5093457;27;20134;-66
2023/07/21 06:59:28;;;;;;;5.35;2.42;;;;;;;;;;5057260;28;20052;-68
2023/07/21 07:01:55;;;;;;;10.80;6.03;;;;;;;;;;5051262;28;20063;-63
2023/07/21 07:04:25;;;;;;;17.52;9.60;;;;;;;;;;5051313;28;20056;-68
2023/07/21 07:06:53;;;;;;;10.43;4.60;;;;;;;;;;5037028;28;20080;-69
2023/07/21 07:09:21;;;;;;;4.68;2.60;;;;;;;;;;5017776;28;20123;-68
2023/07/21 07:11:48;;;;;;;6.65;2.40;;;;;;;;;;5044887;28;20057;-67
2023/07/21 07:14:19;;;;;;;4.32;2.10;;;;;;;;;;5021343;28;20157;-68
2023/07/21 07:16:46;;;;;;;4.55;2.08;;;;;;;;;;5033601;28;20045;-69
2023/07/21 07:19:12;;;;;;;3.58;1.75;;;;;;;;;;5035093;28;20068;-68
2023/07/21 07:21:41;;;;;;;4.15;1.80;;;;;;;;;;5023865;28;20049;-67
2023/07/21 07:24:07;;;;;;;3.00;1.55;;;;;;;;;;4998071;28;20048;-68
2023/07/21 07:26:34;;;;;;;3.28;1.60;;;;;;;;;;5036348;28;20111;-64
2023/07/21 07:29:03;;;;;;;3.13;1.73;;;;;;;;;;5033543;28;20071;-66
2023/07/21 07:31:32;;;;;;;5.22;1.70;;;;;;;;;;5055521;28;20148;-67
2023/07/21 07:33:59;;;;;;;4.88;1.88;;;;;;;;;;5040191;28;20048;-68
2023/07/21 07:36:25;;;;;;;4.57;1.88;;;;;;;;;;5040676;28;20064;-65
2023/07/21 07:38:52;;;;;;;3.92;2.15;;;;;;;;;;5050443;28;21209;-68
2023/07/21 07:41:21;;;;;;;5.45;2.25;;;;;;;;;;5040971;28;20044;-68
2023/07/21 07:43:47;;;;;;;5.97;1.58;;;;;;;;;;5054774;28;20134;-66
2023/07/21 07:46:17;;;;;;;9.15;1.88;;;;;;;;;;5070692;28;20159;-64
2023/07/21 07:48:47;;;;;;;3.95;1.95;;;;;;;;;;5052421;28;20044;-65
2023/07/21 07:51:14;;;;;;;4.05;2.05;;;;;;;;;;5055581;28;20051;-67
2023/07/21 07:53:41;;;;;;;7.05;1.92;;;;;;;;;;5056937;28;20234;-66
2023/07/21 07:56:14;;;;;;;5.45;2.63;;;;;;;;;;5062897;28;20072;-68
2023/07/21 07:58:43;;;;;;;7.93;3.50;;;;;;;;;;5047816;28;20412;-67
2023/07/21 08:01:12;;;;;;;5.65;2.85;;;;;;;;;;5056574;28;20080;-70
2023/07/21 08:03:43;;;;;;;5.22;2.47;;;;;;;;;;5042147;28;20056;-67
2023/07/21 08:06:12;;;;;;;5.30;2.42;;;;;;;;;;5052346;28;20084;-67
2023/07/21 08:08:39;;;;;;;;;;;;;;;;;;5037368;28;20049;-67
2023/07/21 08:11:08;;;;;;;5.20;2.00;;;;;;;;;;5059229;28;19934;-64
2023/07/21 08:13:36;;;;;;;7.50;2.50;;;;;;;;;;5047205;28;20044;-68
2023/07/21 08:16:08;;;;;;;4.28;2.20;;;;;;;;;;5030128;28;20076;-64
2023/07/21 08:18:35;;;;;;;3.90;1.88;;;;;;;;;;5036139;28;20084;-66
2023/07/21 08:21:20;;;;;;;4.18;2.15;;;;;;;;;;5039787;28;20067;-64
2023/07/21 08:23:47;;;;;;;5.15;2.47;;;;;;;;;;5022104;28;20126;-67
2023/07/21 08:26:14;;;;;;;3.03;1.67;;;;;;;;;;5000568;28;20148;-65
2023/07/21 08:28:41;;;;;;;5.13;1.95;;;;;;;;;;5045480;28;20049;-65
2023/07/21 08:31:09;;;;;;;2.78;1.60;;;;;;;;;;5062844;28;20052;-68
2023/07/21 08:33:35;;;;;;;4.75;1.67;;;;;;;;;;5065109;28;20069;-66
2023/07/21 08:36:02;;;;;;;3.58;1.70;;;;;;;;;;5034698;28;20147;-64
2023/07/21 08:38:30;;;;;;;3.58;1.50;;;;;;;;;;5041350;28;20056;-65
2023/07/21 08:41:04;;;;;;;3.75;1.58;;;;;;;;;;5039881;28;20056;-65
2023/07/21 08:43:32;;;;;;;3.40;1.80;;;;;;;;;;5059981;28;20122;-66
2023/07/21 08:46:05;;;;;;;3.45;1.38;;;;;;;;;;5028464;28;20133;-65
2023/07/21 08:48:33;;;;;;;2.63;1.42;;;;;;;;;;5058408;28;20044;-67
2023/07/21 08:51:00;;;;;;;6.38;1.55;;;;;;;;;;5035491;28;20055;-65
2023/07/21 08:53:27;;;;;;;5.03;1.80;;;;;;;;;;5024056;28;20056;-68
2023/07/21 08:55:56;;;;;;;2.90;1.55;;;;;;;;;;5035219;28;20053;-68
2023/07/21 08:58:24;;;;;;;5.03;1.83;;;;;;;;;;5036454;28;20052;-66
2023/07/21 09:00:54;;;;;;;2.33;1.60;;;;;;;;;;5056666;28;20071;-67
2023/07/21 09:03:23;;;;;;;3.47;1.83;;;;;;;;;;5046868;28;20139;-66
2023/07/21 09:05:50;;;;;;;4.57;1.70;;;;;;;;;;5046723;28;20060;-67
2023/07/21 09:08:23;;;;;;;4.43;1.80;;;;;;;;;;5023013;28;20087;-67
2023/07/21 09:10:50;;;;;;;3.35;1.58;;;;;;;;;;5040850;28;20060;-64
2023/07/21 09:13:19;;;;;;;2.70;1.50;;;;;;;;;;5041407;28;20056;-68
2023/07/21 09:15:53;;;;;;;4.28;1.90;;;;;;;;;;5035176;28;20095;-69
2023/07/21 09:18:25;;;;;;;4.18;2.00;;;;;;;;;;5021353;28;20064;-66
2023/07/21 09:20:52;;;;;;;4.57;1.70;;;;;;;;;;5016631;28;20068;-66
2023/07/21 09:23:19;;;;;;;4.40;2.17;;;;;;;;;;5036921;28;20051;-68
2023/07/21 09:25:54;;;;;;;4.80;1.85;;;;;;;;;;5037202;28;20060;-64
2023/07/21 09:28:39;;;;;;;3.75;1.48;;;;;;;;;;5032178;28;20049;-67
2023/07/21 09:31:06;;;;;;;3.47;1.17;;;;;;;;;;5042882;28;20033;-67
2023/07/21 09:33:37;;;;;;;2.25;1.15;;;;;;;;;;5020850;28;20049;-65
2023/07/21 09:36:08;;;;;;;2.83;1.48;;;;;;;;;;5008049;28;20083;-70
2023/07/21 09:38:36;;;;;;;1.90;1.17;;;;;;;;;;5036922;28;20057;-67
2023/07/21 09:41:04;;;;;;;;;;;;;;;;;;5038856;28;20048;-67
2023/07/21 09:43:34;;;;;;;3.00;1.27;;;;;;;;;;5020114;28;20083;-64
2023/07/21 09:46:02;;;;;;;2.10;1.40;;;;;;;;;;5024537;28;20061;-67
2023/07/21 09:48:30;;;;;;;1.95;1.33;;;;;;;;;;5033116;28;20061;-70
2023/07/21 09:50:59;;;;;;;4.82;1.60;;;;;;;;;;5043016;28;20060;-67
2023/07/21 09:53:30;;;;;;;2.78;1.45;;;;;;;;;;5025817;28;20044;-65
2023/07/21 09:55:59;;;;;;;3.35;1.67;;;;;;;;;;5029546;28;20045;-67
2023/07/21 09:58:29;;;;;;;2.40;1.42;;;;;;;;;;5057206;28;20130;-68
2023/07/21 10:01:01;;;;;;;3.08;1.60;;;;;;;;;;5038324;28;20052;-70
2023/07/21 10:03:28;;;;;;;8.75;1.90;;;;;;;;;;5057256;28;20060;-67
2023/07/21 10:05:55;;;;;;;3.70;1.88;;;;;;;;;;5033007;28;20057;-69
2023/07/21 10:08:23;;;;;;;3.83;1.83;;;;;;;;;;5060191;28;20147;-65
2023/07/21 10:10:50;;;;;;;2.92;1.58;;;;;;;;;;5033774;28;21696;-67
2023/07/21 10:13:16;;;;;;;2.88;1.23;;;;;;;;;;5036212;28;20059;-69
2023/07/21 10:15:47;;;;;;;4.40;1.48;;;;;;;;;;5036045;28;20059;-67
2023/07/21 10:18:15;;;;;;;2.63;1.42;;;;;;;;;;5038529;28;20063;-67
2023/07/21 10:20:49;;;;;;;5.13;2.03;;;;;;;;;;5032068;28;20080;-68
2023/07/21 10:23:16;;;;;;;3.03;1.58;;;;;;;;;;5025639;28;20041;-67
2023/07/21 10:25:48;;;;;;;3.28;1.67;;;;;;;;;;5011150;28;20056;-68
2023/07/21 10:28:15;;;;;;;2.65;1.80;;;;;;;;;;5027761;28;20052;-66
2023/07/21 10:30:42;;;;;;;2.67;1.38;;;;;;;;;;5055799;28;20079;-67
2023/07/21 10:33:12;;;;;;;3.58;0.98;;;;;;;;;;5057989;28;20059;-66
2023/07/21 10:35:41;;;;;;;2.95;1.10;;;;;;;;;;5053665;28;20085;-65
2023/07/21 10:38:24;;;;;;;1.65;1.05;;;;;;;;;;5062626;28;20074;-64
2023/07/21 10:40:51;;;;;;;4.10;1.58;;;;;;;;;;5037148;28;20056;-67
2023/07/21 10:43:17;;;;;;;3.47;1.70;;;;;;;;;;5021052;28;20063;-68
2023/07/21 10:45:51;;;;;;;3.83;1.50;;;;;;;;;;5034485;28;20059;-66
2023/07/21 10:48:18;;;;;;;2.70;1.48;;;;;;;;;;5043589;28;20097;-66
2023/07/21 10:50:54;;;;;;;4.40;1.63;;;;;;;;;;5026244;28;20060;-67
2023/07/21 10:53:21;;;;;;;1.95;1.42;;;;;;;;;;5058205;28;20083;-68
2023/07/21 10:55:47;;;;;;;2.88;1.40;;;;;;;;;;5036520;28;20085;-64
2023/07/21 10:58:15;;;;;;;4.47;1.30;;;;;;;;;;5036931;28;20135;-67
2023/07/21 11:00:46;;;;;;;2.97;1.48;;;;;;;;;;5030784;28;20094;-68
2023/07/21 11:03:13;;;;;;;3.45;1.63;;;;;;;;;;5033375;28;20060;-68
2023/07/21 11:05:39;;;;;;;2.97;1.50;;;;;;;;;;5025028;28;20055;-69
2023/07/21 11:08:11;;;;;;;2.47;1.60;;;;;;;;;;5039780;28;20064;-67
2023/07/21 11:10:38;;;;;;;3.58;2.22;;;;;;;;;;5047739;28;20056;-65
2023/07/21 11:13:05;;;;;;;2.92;1.52;;;;;;;;;;5035821;28;20056;-65
2023/07/21 11:15:31;;;;;;;2.97;1.60;;;;;;;;;;5034740;28;20076;-65
2023/07/21 11:18:00;;;;;;;3.85;1.85;;;;;;;;;;5025680;28;20073;-67
2023/07/21 11:20:30;;;;;;;3.42;1.58;;;;;;;;;;5014565;28;20120;-66
2023/07/21 11:22:57;;;;;;;4.65;1.80;;;;;;;;;;5019249;28;20127;-66
2023/07/21 11:25:25;;;;;;;2.90;1.55;;;;;;;;;;5013222;28;20092;-65
2023/07/21 11:27:53;;;;;;;6.15;2.10;;;;;;;;;;5021639;28;20065;-65
2023/07/21 11:30:20;;;;;;;3.45;1.67;;;;;;;;;;5032103;28;20053;-64
2023/07/21 11:32:47;;;;;;;3.13;1.80;;;;;;;;;;5028949;28;20150;-66
2023/07/21 11:35:14;;;;;;;2.47;1.60;;;;;;;;;;5047477;28;20158;-65
2023/07/21 11:37:44;;;;;;;3.97;1.88;;;;;;;;;;5040879;28;20091;-64
2023/07/21 11:40:14;;;;;;;7.78;1.65;;;;;;;;;;5016361;28;20056;-65
2023/07/21 11:42:51;;;;;;;2.53;1.50;;;;;;;;;;5012637;28;20053;-65
2023/07/21 11:45:36;;;;;;;2.22;1.45;;;;;;;;;;5018394;28;20061;-65
2023/07/21 11:48:12;;;;;;;3.45;1.70;;;;;;;;;;5041443;28;20124;-66
2023/07/21 11:50:41;;;;;;;2.85;1.77;;;;;;;;;;5038367;28;20086;-64
2023/07/21 11:53:08;;;;;;;3.35;1.60;;;;;;;;;;5046162;28;20053;-64
2023/07/21 11:55:36;;;;;;;4.28;1.40;;;;;;;;;;5045069;28;20171;-65
2023/07/21 11:58:04;;;;;;;5.73;1.67;;;;;;;;;;5042011;28;20067;-66
2023/07/21 12:00:32;;;;;;;5.65;1.58;;;;;;;;;;5040876;28;20130;-65
2023/07/21 12:03:00;;;;;;;7.55;1.50;;;;;;;;;;5058948;28;20056;-65
2023/07/21 12:05:26;;;;;;;3.88;1.70;;;;;;;;;;5051262;28;20133;-64
2023/07/21 12:07:53;;;;;;;3.60;1.42;;;;;;;;;;5042925;28;20183;-65
2023/07/21 12:10:20;;;;;;;3.92;1.58;;;;;;;;;;5063399;28;20217;-64
2023/07/21 12:12:47;;;;;;;2.85;1.63;;;;;;;;;;5019318;28;21449;-64
2023/07/21 12:15:16;;;;;;;3.35;1.50;;;;;;;;;;5023407;28;20061;-65
2023/07/21 12:17:42;;;;;;;;;;;;;;;;;;5024817;28;20115;-64
2023/07/21 12:20:13;;;;;;;4.35;1.45;;;;;;;;;;5043270;28;19931;-65
2023/07/21 12:22:40;;;;;;;3.05;1.67;;;;;;;;;;5021283;28;20152;-66
2023/07/21 12:25:09;;;;;;;3.75;1.80;;;;;;;;;;4983191;28;20056;-67
2023/07/21 12:27:36;;;;;;;;;;;;;;;;;;5043570;28;20063;-67
2023/07/21 12:30:04;;;;;;;2.15;1.13;;;;;;;;;;5047108;28;19924;-67
2023/07/21 12:32:32;;;;;;;8.38;1.45;;;;;;;;;;5057693;28;20052;-65
2023/07/21 12:35:01;;;;;;;3.33;1.17;;;;;;;;;;5046911;28;20064;-65
2023/07/21 12:37:29;;;;;;;2.80;1.48;;;;;;;;;;5038154;28;20082;-68
2023/07/21 12:39:56;;;;;;;4.32;1.35;;;;;;;;;;5021733;28;20057;-65
2023/07/21 12:42:28;;;;;;;3.83;1.30;;;;;;;;;;5034379;28;20058;-68
2023/07/21 12:44:57;;;;;;;6.45;1.40;;;;;;;;;;5043219;28;20136;-66
2023/07/21 12:47:23;;;;;;;3.30;1.70;;;;;;;;;;5063161;28;20105;-66
2023/07/21 12:49:52;;;;;;;2.50;1.33;;;;;;;;;;5045259;28;20060;-66
2023/07/21 12:52:18;;;;;;;2.45;1.23;;;;;;;;;;5056173;28;20089;-67
2023/07/21 12:54:45;;;;;;;2.70;1.50;;;;;;;;;;5012797;28;20148;-67
2023/07/21 12:57:12;;;;;;;2.80;1.40;;;;;;;;;;5022788;28;20057;-66
2023/07/21 12:59:39;;;;;;;2.42;1.50;;;;;;;;;;5023842;28;20107;-67
2023/07/21 13:02:06;;;;;;;14.40;3.10;;;;;;;;;;5045459;28;20164;-66
2023/07/21 13:04:34;;;;;;;3.17;1.55;;;;;;;;;;5022017;28;20056;-66
2023/07/21 13:07:08;;;;;;;3.55;1.30;;;;;;;;;;5062195;28;20057;-65
2023/07/21 13:09:35;;;;;;;3.20;1.50;;;;;;;;;;5062960;28;20087;-65
2023/07/21 13:12:02;;;;;;;3.10;1.77;;;;;;;;;;5035219;28;20175;-67
2023/07/21 13:14:29;;;;;;;4.70;2.00;;;;;;;;;;5034930;28;20065;-65
2023/07/21 13:16:56;;;;;;;4.65;1.83;;;;;;;;;;5040296;28;20053;-66
2023/07/21 13:19:22;;;;;;;3.58;1.50;;;;;;;;;;5022228;28;20057;-67
2023/07/21 13:21:50;;;;;;;5.57;1.48;;;;;;;;;;5044824;28;20106;-67
2023/07/21 13:24:18;;;;;;;2.92;1.40;;;;;;;;;;5006534;28;20060;-63
2023/07/21 13:26:45;;;;;;;2.95;1.45;;;;;;;;;;5024099;28;20049;-66
2023/07/21 13:29:12;;;;;;;2.67;1.42;;;;;;;;;;5036920;28;20087;-65
2023/07/21 13:31:39;;;;;;;2.65;1.38;;;;;;;;;;5042348;28;20059;-68
2023/07/21 13:34:05;;;;;;;2.38;1.40;;;;;;;;;;4990546;28;20140;-64
2023/07/21 13:36:33;;;;;;;3.15;1.35;;;;;;;;;;5033186;28;20116;-66
2023/07/21 13:38:59;;;;;;;2.33;1.20;;;;;;;;;;5031660;28;20109;-66
2023/07/21 13:41:27;;;;;;;1.88;1.10;;;;;;;;;;5046707;28;20040;-65
2023/07/21 13:43:57;;;;;;;2.40;1.48;;;;;;;;;;5040544;28;20066;-68
2023/07/21 13:46:24;;;;;;;3.88;1.60;;;;;;;;;;5020575;28;20118;-67
2023/07/21 13:48:51;;;;;;;2.78;1.50;;;;;;;;;;5015347;28;20113;-68
2023/07/21 13:51:18;;;;;;;2.55;1.30;;;;;;;;;;5056660;28;20052;-66
2023/07/21 13:53:45;;;;;;;2.73;1.30;;;;;;;;;;5062154;28;20051;-67
2023/07/21 13:56:12;;;;;;;4.00;1.58;;;;;;;;;;5021182;28;20084;-65
2023/07/21 13:58:40;;;;;;;2.88;1.38;;;;;;;;;;5019412;28;20135;-65
2023/07/21 14:01:13;;;;;;;1.92;1.20;;;;;;;;;;5039782;28;20077;-65
2023/07/21 14:03:39;;;;;;;2.95;1.40;;;;;;;;;;5042551;28;20119;-66
2023/07/21 14:06:06;;;;;;;3.22;1.40;;;;;;;;;;4989787;28;20069;-65
2023/07/21 14:08:40;;;;;;;1.92;1.25;;;;;;;;;;5014678;28;20058;-67
2023/07/21 14:11:06;;;;;;;3.30;1.17;;;;;;;;;;5032657;28;20053;-65
2023/07/21 14:13:33;;;;;;;4.38;1.42;;;;;;;;;;4984377;28;20125;-66
2023/07/21 14:16:02;;;;;;;3.80;1.35;;;;;;;;;;5015833;28;20053;-65
2023/07/21 14:18:29;;;;;;;3.47;1.30;;;;;;;;;;5018621;28;20057;-67
2023/07/21 14:20:56;;;;;;;4.63;1.23;;;;;;;;;;5021297;28;20065;-68
2023/07/21 14:23:25;;;;;;;3.33;1.52;;;;;;;;;;5019321;28;20124;-64
2023/07/21 14:25:51;;;;;;;2.55;1.30;;;;;;;;;;5032913;28;20076;-68
2023/07/21 14:28:18;;;;;;;5.40;1.80;;;;;;;;;;5035139;28;20041;-66
2023/07/21 14:30:45;;;;;;;4.30;1.73;;;;;;;;;;5013970;28;20057;-67
2023/07/21 14:33:13;;;;;;;4.28;2.05;;;;;;;;;;5018968;28;20053;-65
2023/07/21 14:35:40;;;;;;;;;;;;;;;;;;5020106;28;20075;-66
2023/07/21 14:38:06;;;;;;;5.38;1.80;;;;;;;;;;5043193;28;19936;-67
2023/07/21 14:40:34;;;;;;;2.53;1.30;;;;;;;;;;5036294;28;20061;-66
2023/07/21 14:43:00;;;;;;;5.10;1.73;;;;;;;;;;5042197;28;20037;-67
2023/07/21 14:45:27;;;;;;;3.92;1.70;;;;;;;;;;5030866;28;20065;-68
2023/07/21 14:47:55;;;;;;;4.63;2.00;;;;;;;;;;5020017;28;20140;-65
2023/07/21 14:50:24;;;;;;;4.32;1.88;;;;;;;;;;5016807;28;20322;-67
2023/07/21 14:52:51;;;;;;;9.05;2.55;;;;;;;;;;5019644;28;20072;-65